Time;durP1;ratioP1;P1;durP2;ratioP2;P2;SDS_P1;SDS_P2;PMS_P1;PMS_P2;Temp;Humidity;BMP_temperature;BMP_pressure;BME280_temperature;BME280_humidity;BME280_pressure;Samples;Min_cycle;Max_cycle;Signal;HPM_P1;HPM_P2
2023/06/16 00:01:03;;;;;;;;;;;25.90;38.40;;;;;;5078989;28;19964;-53
2023/06/16 00:03:33;;;;;;;;;;;25.90;38.40;;;;;;5072556;28;20569;-53
2023/06/16 00:06:03;;;;;;;;;;;25.90;38.40;;;;;;5054518;28;20023;-53
2023/06/16 00:08:30;;;;;;;;;;;25.90;38.50;;;;;;5056462;28;19913;-53
2023/06/16 00:10:56;;;;;;;;;;;25.90;38.30;;;;;;5053237;28;19963;-53
2023/06/16 00:13:21;;;;;;;;;;;25.90;38.60;;;;;;5090575;28;19913;-53
2023/06/16 00:15:47;;;;;;;;;;;25.80;38.40;;;;;;5069917;28;19952;-53
2023/06/16 00:18:12;;;;;;;;;;;25.90;38.50;;;;;;5099026;28;20331;-53
2023/06/16 00:20:38;;;;;;;;;;;25.90;38.50;;;;;;5060965;28;19956;-54
2023/06/16 00:23:06;;;;;;;;;;;25.90;38.50;;;;;;5073567;28;20030;-53
2023/06/16 00:25:32;;;;;;;;;;;25.80;38.60;;;;;;5066075;28;19920;-53
2023/06/16 00:27:57;;;;;;;;;;;25.80;38.60;;;;;;5060108;28;19912;-53
2023/06/16 00:30:23;;;;;;;;;;;25.90;38.70;;;;;;5070841;28;19969;-53
2023/06/16 00:32:48;;;;;;;;;;;25.80;38.60;;;;;;5059703;28;20348;-53
2023/06/16 00:35:14;;;;;;;;;;;25.90;38.60;;;;;;5070534;28;19920;-53
2023/06/16 00:37:39;;;;;;;;;;;25.80;38.60;;;;;;5059230;28;20038;-53
2023/06/16 00:40:05;;;;;;;;;;;25.80;38.60;;;;;;5064763;28;19956;-53
2023/06/16 00:42:31;;;;;;;;;;;25.80;38.70;;;;;;5050405;28;19913;-53
2023/06/16 00:44:56;;;;;;;;;;;25.70;38.60;;;;;;5058703;28;19924;-53
2023/06/16 00:47:22;;;;;;;;;;;25.80;38.70;;;;;;5063558;28;20377;-53
2023/06/16 00:49:47;;;;;;;;;;;25.80;38.80;;;;;;5095339;28;20287;-54
2023/06/16 00:52:13;;;;;;;;;;;25.70;38.90;;;;;;5064046;28;19920;-53
2023/06/16 00:54:38;;;;;;;;;;;25.80;38.90;;;;;;5052102;28;20337;-53
2023/06/16 00:57:05;;;;;;;;;;;25.80;38.80;;;;;;5055759;28;19916;-53
2023/06/16 00:59:30;;;;;;;;;;;25.80;38.80;;;;;;5062748;28;19960;-55
2023/06/16 01:01:56;;;;;;;;;;;25.80;38.90;;;;;;5072079;28;20021;-55
2023/06/16 01:04:22;;;;;;;;;;;25.80;38.90;;;;;;5065819;28;19919;-54
2023/06/16 01:06:50;;;;;;;;;;;25.80;38.90;;;;;;5068957;28;19916;-55
2023/06/16 01:09:20;;;;;;;;;;;25.80;39.00;;;;;;5097119;28;19913;-54
2023/06/16 01:11:51;;;;;;;;;;;25.80;39.00;;;;;;5062704;28;19917;-55
2023/06/16 01:14:23;;;;;;;;;;;25.80;39.10;;;;;;5063512;28;20023;-56
2023/06/16 01:16:49;;;;;;;;;;;25.80;39.20;;;;;;5088546;28;19943;-54
2023/06/16 01:19:17;;;;;;;;;;;25.80;39.10;;;;;;5069587;28;19912;-55
2023/06/16 01:21:43;;;;;;;;;;;25.80;39.30;;;;;;5098712;28;19928;-54
2023/06/16 01:24:10;;;;;;;;;;;25.70;39.20;;;;;;5077298;28;20016;-55
2023/06/16 01:26:37;;;;;;;;;;;25.80;39.30;;;;;;5083050;28;19912;-55
2023/06/16 01:29:10;;;;;;;;;;;25.70;39.20;;;;;;5058940;28;20289;-55
2023/06/16 01:31:36;;;;;;;;;;;25.70;39.30;;;;;;5053398;28;20312;-54
2023/06/16 01:34:02;;;;;;;;;;;25.80;39.50;;;;;;5069224;28;19944;-55
2023/06/16 01:36:30;;;;;;;;;;;25.80;39.40;;;;;;5060324;28;20301;-54
2023/06/16 01:38:55;;;;;;;;;;;25.80;39.40;;;;;;5049359;28;19913;-55
2023/06/16 01:41:21;;;;;;;;;;;25.80;39.50;;;;;;5051636;28;19909;-54
2023/06/16 01:43:47;;;;;;;;;;;25.70;39.50;;;;;;5069544;28;20002;-54
2023/06/16 01:46:12;;;;;;;;;;;25.70;39.60;;;;;;5061135;28;19920;-55
2023/06/16 01:48:38;;;;;;;;;;;25.70;39.70;;;;;;5070543;28;19912;-54
2023/06/16 01:51:03;;;;;;;;;;;25.70;39.60;;;;;;5067415;28;19912;-54
2023/06/16 01:53:28;;;;;;;;;;;25.70;39.60;;;;;;5061485;28;20372;-54
2023/06/16 01:55:54;;;;;;;;;;;25.70;39.60;;;;;;5055800;28;20289;-55
2023/06/16 01:58:20;;;;;;;;;;;25.70;39.90;;;;;;5070619;28;20288;-55
2023/06/16 02:01:06;;;;;;;;;;;25.80;39.80;;;;;;5066030;28;19965;-54
2023/06/16 02:03:33;;;;;;;;;;;25.80;39.80;;;;;;5062992;28;19920;-54
2023/06/16 02:05:59;;;;;;;;;;;25.70;39.80;;;;;;5062901;28;20024;-54
2023/06/16 02:08:25;;;;;;;;;;;25.70;39.70;;;;;;5070839;28;19924;-54
2023/06/16 02:10:50;;;;;;;;;;;25.70;39.90;;;;;;5062429;28;19913;-55
2023/06/16 02:13:16;;;;;;;;;;;25.70;40.80;;;;;;5062519;28;19913;-55
2023/06/16 02:15:41;;;;;;;;;;;25.70;40.10;;;;;;5066916;28;20003;-55
2023/06/16 02:18:09;;;;;;;;;;;25.70;40.10;;;;;;5092184;28;20411;-54
2023/06/16 02:20:35;;;;;;;;;;;25.60;40.00;;;;;;5061035;28;20364;-55
2023/06/16 02:23:01;;;;;;;;;;;25.70;40.00;;;;;;5059432;28;19992;-54
2023/06/16 02:25:26;;;;;;;;;;;25.60;40.20;;;;;;5096863;28;20288;-55
2023/06/16 02:27:52;;;;;;;;;;;25.60;40.30;;;;;;5062286;28;19966;-55
2023/06/16 02:30:17;;;;;;;;;;;25.60;40.50;;;;;;5095271;28;20425;-54
2023/06/16 02:32:43;;;;;;;;;;;25.70;40.50;;;;;;5061380;28;20383;-54
2023/06/16 02:35:09;;;;;;;;;;;25.60;40.40;;;;;;5058954;28;20044;-55
2023/06/16 02:37:35;;;;;;;;;;;25.60;40.60;;;;;;5054946;28;19923;-54
2023/06/16 02:40:04;;;;;;;;;;;25.60;40.90;;;;;;5069623;28;19913;-54
2023/06/16 02:42:30;;;;;;;;;;;25.50;40.80;;;;;;5073607;28;19924;-54
2023/06/16 02:44:55;;;;;;;;;;;25.50;40.90;;;;;;5087580;28;20281;-54
2023/06/16 02:47:21;;;;;;;;;;;25.50;41.10;;;;;;5065876;28;19923;-55
2023/06/16 02:49:46;;;;;;;;;;;25.50;41.20;;;;;;5057284;28;20441;-55
2023/06/16 02:52:12;;;;;;;;;;;25.50;41.40;;;;;;5076643;28;19955;-55
2023/06/16 02:54:38;;;;;;;;;;;25.50;41.30;;;;;;5075841;28;19932;-54
2023/06/16 02:57:03;;;;;;;;;;;25.50;41.40;;;;;;5062619;28;19924;-54
2023/06/16 02:59:29;;;;;;;;;;;25.50;41.50;;;;;;5086958;28;20304;-54
2023/06/16 03:01:54;;;;;;;;;;;25.50;41.50;;;;;;5070257;28;19916;-54
2023/06/16 03:04:20;;;;;;;;;;;25.60;41.60;;;;;;5070112;28;19935;-55
2023/06/16 03:06:46;;;;;;;;;;;25.60;41.50;;;;;;5101884;27;20424;-55
2023/06/16 03:09:12;;;;;;;;;;;25.50;41.40;;;;;;5053649;28;19970;-54
2023/06/16 03:11:37;;;;;;;;;;;25.50;41.60;;;;;;5068894;28;19959;-54
2023/06/16 03:14:03;;;;;;;;;;;25.50;41.40;;;;;;5066303;28;19912;-55
2023/06/16 03:16:29;;;;;;;;;;;25.50;41.60;;;;;;5071755;28;20443;-55
2023/06/16 03:18:55;;;;;;;;;;;25.50;41.60;;;;;;5057682;28;20288;-55
2023/06/16 03:21:21;;;;;;;;;;;25.50;41.60;;;;;;5066627;28;19920;-54
2023/06/16 03:23:47;;;;;;;;;;;25.40;41.60;;;;;;5057274;28;19920;-55
2023/06/16 03:26:13;;;;;;;;;;;25.40;41.70;;;;;;5072749;28;19922;-55
2023/06/16 03:28:40;;;;;;;;;;;25.40;41.80;;;;;;5054609;28;19912;-54
2023/06/16 03:31:05;;;;;;;;;;;25.40;42.10;;;;;;5063295;28;19962;-54
2023/06/16 03:33:31;;;;;;;;;;;25.30;42.20;;;;;;5062086;28;19912;-54
2023/06/16 03:35:57;;;;;;;;;;;25.30;42.60;;;;;;5062229;28;19920;-54
2023/06/16 03:38:22;;;;;;;;;;;25.20;42.90;;;;;;5073394;28;19958;-55
2023/06/16 03:40:48;;;;;;;;;;;25.10;43.20;;;;;;5058376;28;19912;-55
2023/06/16 03:43:13;;;;;;;;;;;25.10;43.40;;;;;;5070669;28;20026;-54
2023/06/16 03:45:39;;;;;;;;;;;25.00;43.70;;;;;;5060535;28;19922;-55
2023/06/16 03:48:04;;;;;;;;;;;25.00;44.10;;;;;;5074282;28;19913;-55
2023/06/16 03:50:30;;;;;;;;;;;24.90;44.30;;;;;;5070365;28;19920;-54
2023/06/16 03:52:55;;;;;;;;;;;24.90;44.50;;;;;;5069102;28;19919;-54
2023/06/16 03:55:21;;;;;;;;;;;25.00;44.40;;;;;;5064034;28;19924;-54
2023/06/16 03:57:47;;;;;;;;;;;24.90;44.80;;;;;;5062046;28;19913;-55
2023/06/16 04:00:12;;;;;;;;;;;24.90;45.40;;;;;;5062640;28;19985;-54
2023/06/16 04:02:38;;;;;;;;;;;24.80;45.90;;;;;;5068995;28;19978;-54
2023/06/16 04:05:03;;;;;;;;;;;24.70;46.20;;;;;;5064156;28;19912;-54
2023/06/16 04:07:30;;;;;;;;;;;24.70;46.20;;;;;;5071222;28;19939;-52
2023/06/16 04:09:55;;;;;;;;;;;24.70;46.30;;;;;;5065380;28;20031;-55
2023/06/16 04:12:21;;;;;;;;;;;24.70;46.40;;;;;;5098152;28;20023;-54
2023/06/16 04:14:46;;;;;;;;;;;24.70;46.60;;;;;;5070137;28;19971;-55
2023/06/16 04:17:12;;;;;;;;;;;24.70;46.60;;;;;;5066930;28;19939;-54
2023/06/16 04:19:37;;;;;;;;;;;24.70;46.40;;;;;;5068216;28;19916;-55
2023/06/16 04:22:03;;;;;;;;;;;24.70;46.40;;;;;;5069112;28;19913;-54
2023/06/16 04:24:28;;;;;;;;;;;24.70;46.70;;;;;;5052669;28;19951;-54
2023/06/16 04:26:58;;;;;;;;;;;24.70;46.60;;;;;;5058541;28;20359;-55
2023/06/16 04:29:25;;;;;;;;;;;24.70;46.50;;;;;;5098381;28;19919;-55
2023/06/16 04:31:51;;;;;;;;;;;24.90;46.50;;;;;;5063340;28;19913;-55
2023/06/16 04:34:17;;;;;;;;;;;24.90;46.10;;;;;;5061460;28;20291;-55
2023/06/16 04:36:44;;;;;;;;;;;24.90;46.20;;;;;;5061089;28;20004;-55
2023/06/16 04:39:14;;;;;;;;;;;24.90;46.20;;;;;;5068336;28;20007;-55
2023/06/16 04:41:40;;;;;;;;;;;24.90;46.00;;;;;;5057726;28;19923;-55
2023/06/16 04:44:06;;;;;;;;;;;24.90;46.20;;;;;;5070056;28;19924;-55
2023/06/16 04:46:32;;;;;;;;;;;25.00;46.10;;;;;;5069571;28;20277;-55
2023/06/16 04:48:57;;;;;;;;;;;25.00;46.20;;;;;;5068394;28;19925;-55
2023/06/16 04:51:23;;;;;;;;;;;25.00;46.10;;;;;;5085010;28;20023;-55
2023/06/16 04:53:48;;;;;;;;;;;25.00;46.10;;;;;;5057372;28;19916;-55
2023/06/16 04:56:14;;;;;;;;;;;25.00;46.20;;;;;;5058933;28;19974;-55
2023/06/16 04:58:40;;;;;;;;;;;25.00;46.30;;;;;;5059087;28;19943;-55
2023/06/16 05:01:06;;;;;;;;;;;25.00;46.30;;;;;;5064527;28;19955;-55
2023/06/16 05:03:31;;;;;;;;;;;25.00;46.40;;;;;;5056153;28;19912;-55
2023/06/16 05:05:56;;;;;;;;;;;24.90;46.30;;;;;;5055048;28;19913;-55
2023/06/16 05:08:22;;;;;;;;;;;24.90;46.30;;;;;;5053659;28;19913;-55
2023/06/16 05:10:47;;;;;;;;;;;24.90;46.30;;;;;;5057788;28;19957;-55
2023/06/16 05:13:13;;;;;;;;;;;24.90;46.20;;;;;;5052891;28;19917;-55
2023/06/16 05:15:38;;;;;;;;;;;24.90;46.10;;;;;;5061665;28;19998;-55
2023/06/16 05:18:04;;;;;;;;;;;24.90;46.20;;;;;;5059067;28;19916;-55
2023/06/16 05:20:31;;;;;;;;;;;24.90;46.10;;;;;;5065927;28;19969;-55
2023/06/16 05:22:57;;;;;;;;;;;24.90;46.10;;;;;;5067527;28;20357;-55
2023/06/16 05:25:23;;;;;;;;;;;24.90;46.00;;;;;;5070311;28;19965;-55
2023/06/16 05:27:48;;;;;;;;;;;24.90;46.10;;;;;;5071853;28;20011;-55
2023/06/16 05:30:13;;;;;;;;;;;24.90;46.10;;;;;;5070803;28;19917;-55
2023/06/16 05:32:39;;;;;;;;;;;24.90;46.40;;;;;;5071209;28;19917;-55
2023/06/16 05:35:05;;;;;;;;;;;24.80;46.30;;;;;;5063995;28;20562;-54
2023/06/16 05:37:30;;;;;;;;;;;24.90;46.40;;;;;;5061864;28;21208;-54
2023/06/16 05:39:56;;;;;;;;;;;24.90;46.30;;;;;;5056840;28;19967;-54
2023/06/16 05:42:21;;;;;;;;;;;24.90;46.30;;;;;;5069106;28;19920;-55
2023/06/16 05:44:47;;;;;;;;;;;24.90;46.20;;;;;;5063998;28;19947;-55
2023/06/16 05:47:12;;;;;;;;;;;24.90;46.10;;;;;;5059802;28;20034;-55
2023/06/16 05:49:38;;;;;;;;;;;24.90;46.20;;;;;;5060872;28;20667;-55
2023/06/16 05:52:05;;;;;;;;;;;24.90;46.10;;;;;;5069797;28;19920;-55
2023/06/16 05:54:33;;;;;;;;;;;24.90;46.10;;;;;;5101814;28;19912;-55
2023/06/16 05:56:59;;;;;;;;;;;24.90;46.30;;;;;;5090546;28;19920;-55
2023/06/16 05:59:24;;;;;;;;;;;24.90;46.30;;;;;;5071847;28;19936;-55
2023/06/16 06:01:50;;;;;;;;;;;25.00;46.60;;;;;;5060220;28;19913;-55
2023/06/16 06:04:17;;;;;;;;;;;25.00;46.10;;;;;;5059449;28;19913;-55
2023/06/16 06:06:42;;;;;;;;;;;25.00;46.10;;;;;;5059613;28;20510;-55
2023/06/16 06:09:08;;;;;;;;;;;25.00;46.00;;;;;;5070297;28;20031;-55
2023/06/16 06:11:33;;;;;;;;;;;25.00;46.00;;;;;;5068764;28;20416;-55
2023/06/16 06:13:59;;;;;;;;;;;24.90;46.00;;;;;;5061984;28;20028;-55
2023/06/16 06:16:26;;;;;;;;;;;24.90;46.10;;;;;;5065866;28;19983;-55
2023/06/16 06:18:51;;;;;;;;;;;24.90;46.10;;;;;;5056299;28;19935;-55
2023/06/16 06:21:16;;;;;;;;;;;24.80;46.20;;;;;;5063617;28;19913;-54
2023/06/16 06:23:42;;;;;;;;;;;24.80;46.90;;;;;;5106916;28;20328;-56
2023/06/16 06:26:07;;;;;;;;;;;24.70;46.40;;;;;;5056868;28;20342;-55
2023/06/16 06:28:33;;;;;;;;;;;24.70;46.50;;;;;;5069858;28;20042;-55
2023/06/16 06:30:58;;;;;;;;;;;24.70;46.70;;;;;;5064873;28;20338;-55
2023/06/16 06:33:24;;;;;;;;;;;24.70;46.80;;;;;;5075722;28;20277;-55
2023/06/16 06:35:49;;;;;;;;;;;24.70;46.90;;;;;;5073996;28;20273;-55
2023/06/16 06:38:15;;;;;;;;;;;24.70;47.00;;;;;;5075548;28;19966;-54
2023/06/16 06:40:40;;;;;;;;;;;24.60;47.00;;;;;;5068146;28;19919;-54
2023/06/16 06:43:06;;;;;;;;;;;24.70;47.00;;;;;;5074152;28;19932;-54
2023/06/16 06:45:31;;;;;;;;;;;24.60;47.00;;;;;;5074230;28;20193;-54
2023/06/16 06:47:57;;;;;;;;;;;24.60;47.30;;;;;;5074788;28;20469;-54
2023/06/16 06:50:22;;;;;;;;;;;24.70;47.30;;;;;;5072098;28;20297;-55
2023/06/16 06:52:48;;;;;;;;;;;24.70;47.40;;;;;;5070286;28;19924;-55
2023/06/16 06:55:13;;;;;;;;;;;24.70;47.50;;;;;;5072207;28;20293;-54
2023/06/16 06:57:40;;;;;;;;;;;24.70;47.80;;;;;;5066536;28;19916;-54
2023/06/16 07:00:07;;;;;;;;;;;24.70;48.00;;;;;;5054622;28;19913;-55
2023/06/16 07:02:33;;;;;;;;;;;24.70;47.90;;;;;;5063369;28;19919;-54
2023/06/16 07:04:58;;;;;;;;;;;24.70;48.00;;;;;;5073367;28;19999;-55
2023/06/16 07:07:24;;;;;;;;;;;24.70;48.00;;;;;;5066134;28;19912;-53
2023/06/16 07:09:49;;;;;;;;;;;24.70;48.00;;;;;;5070040;28;20015;-54
2023/06/16 07:12:16;;;;;;;;;;;24.80;48.10;;;;;;5074522;28;19909;-54
2023/06/16 07:14:43;;;;;;;;;;;24.80;48.40;;;;;;5066807;28;19942;-54
2023/06/16 07:17:08;;;;;;;;;;;24.80;48.30;;;;;;5068112;28;19966;-54
2023/06/16 07:19:34;;;;;;;;;;;24.80;48.30;;;;;;5093489;28;20373;-54
2023/06/16 07:22:00;;;;;;;;;;;24.80;48.40;;;;;;5071656;28;19913;-53
2023/06/16 07:24:26;;;;;;;;;;;24.90;48.50;;;;;;5071715;28;20356;-53
2023/06/16 07:26:51;;;;;;;;;;;24.90;48.40;;;;;;5064770;28;19919;-54
2023/06/16 07:29:17;;;;;;;;;;;24.90;48.40;;;;;;5082312;28;19952;-53
2023/06/16 07:31:43;;;;;;;;;;;24.90;48.50;;;;;;5075284;28;20380;-56
2023/06/16 07:34:08;;;;;;;;;;;24.90;48.50;;;;;;5068027;28;19970;-56
2023/06/16 07:36:34;;;;;;;;;;;24.90;48.50;;;;;;5062131;28;19917;-57
2023/06/16 07:39:00;;;;;;;;;;;24.90;48.70;;;;;;5074016;28;20438;-54
2023/06/16 07:41:25;;;;;;;;;;;24.90;48.60;;;;;;5071699;28;19912;-54
2023/06/16 07:43:51;;;;;;;;;;;24.90;48.70;;;;;;5088613;28;19996;-56
2023/06/16 07:46:17;;;;;;;;;;;25.00;48.80;;;;;;5070748;28;19912;-54
2023/06/16 07:48:42;;;;;;;;;;;25.00;49.00;;;;;;5073250;28;20369;-54
2023/06/16 07:51:08;;;;;;;;;;;25.00;48.60;;;;;;5068627;28;20441;-54
2023/06/16 07:53:33;;;;;;;;;;;25.00;48.70;;;;;;5085891;28;20450;-55
2023/06/16 07:55:59;;;;;;;;;;;25.00;48.60;;;;;;5071941;28;20474;-54
2023/06/16 07:58:25;;;;;;;;;;;25.10;48.70;;;;;;5068743;28;20210;-55
2023/06/16 08:00:51;;;;;;;;;;;25.10;48.70;;;;;;5057247;28;19909;-55
2023/06/16 08:03:17;;;;;;;;;;;25.10;48.70;;;;;;5070061;28;19908;-55
2023/06/16 08:05:43;;;;;;;;;;;25.10;48.80;;;;;;5057719;28;19917;-55
2023/06/16 08:08:08;;;;;;;;;;;25.00;48.90;;;;;;5060762;28;19966;-55
2023/06/16 08:10:34;;;;;;;;;;;24.90;48.80;;;;;;5061789;28;19978;-54
2023/06/16 08:13:00;;;;;;;;;;;25.00;48.90;;;;;;5072647;28;19916;-54
2023/06/16 08:15:25;;;;;;;;;;;24.90;48.70;;;;;;5073363;28;19977;-54
2023/06/16 08:17:51;;;;;;;;;;;24.90;48.80;;;;;;5073698;28;19908;-55
2023/06/16 08:20:16;;;;;;;;;;;24.90;48.90;;;;;;5065949;28;19916;-54
2023/06/16 08:22:42;;;;;;;;;;;24.90;49.00;;;;;;5070929;28;19912;-55
2023/06/16 08:25:08;;;;;;;;;;;24.90;49.10;;;;;;5072866;28;19912;-55
2023/06/16 08:27:33;;;;;;;;;;;24.90;49.50;;;;;;5073496;28;19919;-55
2023/06/16 08:29:59;;;;;;;;;;;24.90;49.80;;;;;;5073238;28;19927;-54
2023/06/16 08:32:24;;;;;;;;;;;24.90;50.10;;;;;;5098802;28;20482;-55
2023/06/16 08:34:50;;;;;;;;;;;24.90;50.10;;;;;;5064769;28;19966;-54
2023/06/16 08:37:15;;;;;;;;;;;24.90;50.30;;;;;;5073377;28;20001;-55
2023/06/16 08:39:42;;;;;;;;;;;24.90;50.40;;;;;;5104583;28;20377;-55
2023/06/16 08:42:07;;;;;;;;;;;24.90;50.70;;;;;;5073162;28;19908;-54
2023/06/16 08:44:33;;;;;;;;;;;24.90;51.20;;;;;;5071144;28;20020;-54
2023/06/16 08:46:58;;;;;;;;;;;24.90;50.70;;;;;;5068858;28;19919;-55
2023/06/16 08:49:24;;;;;;;;;;;24.90;50.70;;;;;;5056112;28;19916;-55
2023/06/16 08:51:51;;;;;;;;;;;24.90;50.70;;;;;;5052525;28;20380;-55
2023/06/16 08:54:19;;;;;;;;;;;24.90;50.60;;;;;;5052824;28;19916;-55
2023/06/16 08:56:45;;;;;;;;;;;24.90;50.50;;;;;;5055884;28;19921;-54
2023/06/16 08:59:11;;;;;;;;;;;24.90;50.30;;;;;;5055083;28;19919;-55
2023/06/16 09:01:39;;;;;;;;;;;24.90;50.10;;;;;;5059870;28;19988;-55
2023/06/16 09:04:08;;;;;;;;;;;24.90;50.30;;;;;;5064900;28;19923;-55
2023/06/16 09:06:35;;;;;;;;;;;24.90;50.20;;;;;;5057720;28;20007;-55
2023/06/16 09:09:01;;;;;;;;;;;24.90;51.00;;;;;;5058305;28;20293;-54
2023/06/16 09:11:26;;;;;;;;;;;24.90;50.30;;;;;;5090361;28;19912;-54
2023/06/16 09:13:52;;;;;;;;;;;24.90;50.30;;;;;;5105137;28;19914;-55
2023/06/16 09:16:19;;;;;;;;;;;24.80;50.60;;;;;;5060035;28;21708;-55
2023/06/16 09:18:48;;;;;;;;;;;24.80;50.70;;;;;;5059543;28;19992;-54
2023/06/16 09:21:20;;;;;;;;;;;24.90;50.90;;;;;;5069924;28;19965;-55
2023/06/16 09:23:47;;;;;;;;;;;24.90;50.70;;;;;;5072623;28;19913;-55
2023/06/16 09:26:12;;;;;;;;;;;24.90;50.60;;;;;;5058375;28;19931;-56
2023/06/16 09:28:39;;;;;;;;;;;24.90;50.40;;;;;;5052556;28;19997;-56
2023/06/16 09:31:07;;;;;;;;;;;25.00;50.70;;;;;;5057890;28;20422;-54
2023/06/16 09:33:33;;;;;;;;;;;25.00;50.80;;;;;;5061567;28;19913;-54
2023/06/16 09:35:59;;;;;;;;;;;24.90;50.80;;;;;;5059885;28;19924;-55
2023/06/16 09:38:25;;;;;;;;;;;24.90;50.70;;;;;;5054623;28;19920;-56
2023/06/16 09:40:50;;;;;;;;;;;24.90;51.20;;;;;;5059320;28;20356;-55
2023/06/16 09:43:16;;;;;;;;;;;24.80;50.70;;;;;;5058923;28;20007;-56
2023/06/16 09:45:41;;;;;;;;;;;24.80;50.90;;;;;;5062753;28;19917;-54
2023/06/16 09:48:08;;;;;;;;;;;24.80;51.20;;;;;;5064785;28;19912;-56
2023/06/16 09:50:35;;;;;;;;;;;24.80;51.30;;;;;;5057045;28;20019;-56
2023/06/16 09:53:03;;;;;;;;;;;24.90;51.20;;;;;;5057299;28;19913;-55
2023/06/16 09:55:28;;;;;;;;;;;24.90;51.30;;;;;;5052844;28;20289;-55
2023/06/16 09:57:54;;;;;;;;;;;25.00;51.10;;;;;;5069850;28;19920;-56
2023/06/16 10:00:20;;;;;;;;;;;25.00;51.00;;;;;;5093348;28;19924;-55
2023/06/16 10:02:46;;;;;;;;;;;25.00;50.70;;;;;;5057439;28;19932;-55
2023/06/16 10:05:15;;;;;;;;;;;25.10;50.40;;;;;;5058127;28;19962;-56
2023/06/16 10:07:48;;;;;;;;;;;25.10;51.10;;;;;;5063375;28;19916;-55
2023/06/16 10:10:14;;;;;;;;;;;25.00;50.60;;;;;;5059869;28;19915;-55
2023/06/16 10:12:41;;;;;;;;;;;25.10;50.60;;;;;;5053763;28;20296;-55
2023/06/16 10:15:07;;;;;;;;;;;25.10;50.80;;;;;;5050888;28;19971;-56
2023/06/16 10:17:33;;;;;;;;;;;25.10;50.70;;;;;;5058151;28;19963;-54
2023/06/16 10:19:58;;;;;;;;;;;25.10;50.70;;;;;;5067175;28;19983;-55
2023/06/16 10:22:24;;;;;;;;;;;25.10;50.80;;;;;;5050878;28;20003;-53
2023/06/16 10:24:50;;;;;;;;;;;25.10;50.90;;;;;;5054998;28;20335;-54
2023/06/16 10:27:15;;;;;;;;;;;25.10;50.90;;;;;;5056177;28;19921;-54
2023/06/16 10:29:41;;;;;;;;;;;25.10;51.00;;;;;;5063327;28;19924;-54
2023/06/16 10:32:07;;;;;;;;;;;25.00;51.20;;;;;;5057878;28;19960;-54
2023/06/16 10:34:34;;;;;;;;;;;25.00;50.90;;;;;;5063741;28;19916;-54
2023/06/16 10:37:00;;;;;;;;;;;25.00;51.40;;;;;;5090696;28;19927;-54
2023/06/16 10:39:25;;;;;;;;;;;24.90;51.60;;;;;;5062222;28;19920;-53
2023/06/16 10:41:54;;;;;;;;;;;25.00;51.60;;;;;;5069179;28;19960;-54
2023/06/16 10:44:23;;;;;;;;;;;24.90;51.60;;;;;;5055270;28;19932;-54
2023/06/16 10:47:15;;;;;;;;;;;24.90;51.60;;;;;;5055885;28;20365;-54
2023/06/16 10:49:44;;;;;;;;;;;24.90;51.80;;;;;;5051328;28;19917;-53
2023/06/16 10:52:09;;;;;;;;;;;24.90;51.70;;;;;;5052495;28;19917;-54
2023/06/16 10:54:41;;;;;;;;;;;24.80;51.60;;;;;;5055425;28;20430;-54
2023/06/16 10:57:06;;;;;;;;;;;24.90;51.60;;;;;;5079688;28;19992;-54
2023/06/16 10:59:50;;;;;;;;;;;24.90;51.60;;;;;;5069741;28;20263;-54
2023/06/16 11:02:28;;;;;;;;;;;24.90;51.50;;;;;;5057162;28;19913;-54
2023/06/16 11:05:12;;;;;;;;;;;24.80;51.60;;;;;;5086410;28;19920;-54
2023/06/16 11:07:46;;;;;;;;;;;24.90;51.80;;;;;;5064550;28;20868;-54
2023/06/16 11:10:18;;;;;;;;;;;24.80;51.70;;;;;;5053213;28;19920;-54
2023/06/16 11:12:44;;;;;;;;;;;24.80;51.80;;;;;;5061165;28;20011;-54
2023/06/16 11:15:09;;;;;;;;;;;24.80;51.90;;;;;;5056336;28;20002;-54
2023/06/16 11:17:35;;;;;;;;;;;24.80;51.90;;;;;;5086405;27;20326;-55
2023/06/16 11:20:06;;;;;;;;;;;24.90;51.80;;;;;;5089971;28;20221;-55
2023/06/16 11:22:37;;;;;;;;;;;24.90;51.80;;;;;;5063419;28;19916;-55
2023/06/16 11:25:03;;;;;;;;;;;25.00;51.70;;;;;;5069269;28;19912;-55
2023/06/16 11:27:32;;;;;;;;;;;25.00;51.70;;;;;;5056969;28;20293;-54
2023/06/16 11:29:58;;;;;;;;;;;25.00;51.70;;;;;;5056314;28;19927;-55
2023/06/16 11:32:23;;;;;;;;;;;24.90;51.60;;;;;;5060374;28;19913;-55
2023/06/16 11:34:50;;;;;;;;;;;24.90;51.80;;;;;;5062173;28;20447;-55
2023/06/16 11:37:15;;;;;;;;;;;24.90;52.00;;;;;;5057920;28;19928;-54
2023/06/16 11:39:44;;;;;;;;;;;25.00;51.90;;;;;;5049681;28;19916;-56
2023/06/16 11:42:16;;;;;;;;;;;25.00;52.30;;;;;;5048324;28;19920;-55
2023/06/16 11:44:41;;;;;;;;;;;25.00;51.70;;;;;;5060401;28;19967;-54
2023/06/16 11:47:07;;;;;;;;;;;25.10;51.70;;;;;;5050058;28;20011;-54
2023/06/16 11:49:36;;;;;;;;;;;25.10;51.50;;;;;;5049464;28;19920;-54
2023/06/16 11:52:03;;;;;;;;;;;25.00;51.90;;;;;;5055978;28;19971;-55
2023/06/16 11:54:28;;;;;;;;;;;25.00;51.90;;;;;;5088083;28;20356;-54
2023/06/16 11:56:57;;;;;;;;;;;25.00;51.80;;;;;;5092388;28;19967;-55
2023/06/16 11:59:23;;;;;;;;;;;25.00;51.80;;;;;;5062999;28;19931;-55
2023/06/16 12:01:48;;;;;;;;;;;25.10;51.80;;;;;;5059203;28;19963;-55
2023/06/16 12:04:14;;;;;;;;;;;25.10;51.90;;;;;;5094590;28;19971;-56
2023/06/16 12:06:39;;;;;;;;;;;25.10;52.10;;;;;;5064414;28;19916;-54
2023/06/16 12:09:05;;;;;;;;;;;25.10;52.30;;;;;;5058842;28;19916;-55
2023/06/16 12:11:32;;;;;;;;;;;25.10;52.60;;;;;;5072320;28;19927;-53
2023/06/16 12:13:59;;;;;;;;;;;25.10;53.10;;;;;;5095665;28;20373;-53
2023/06/16 12:16:27;;;;;;;;;;;25.10;52.50;;;;;;5066106;28;19943;-53
2023/06/16 12:18:53;;;;;;;;;;;25.20;53.10;;;;;;5071768;28;20044;-53
2023/06/16 12:21:19;;;;;;;;;;;25.20;52.30;;;;;;5072222;28;19930;-54
2023/06/16 12:23:55;;;;;;;;;;;25.20;52.60;;;;;;5073351;28;19919;-54
2023/06/16 12:26:31;;;;;;;;;;;25.20;53.90;;;;;;5072063;28;19965;-54
2023/06/16 12:28:57;;;;;;;;;;;25.20;54.50;;;;;;5070387;28;19912;-55
2023/06/16 12:31:26;;;;;;;;;;;25.20;55.20;;;;;;5081354;28;19962;-54
2023/06/16 12:33:55;;;;;;;;;;;25.20;55.50;;;;;;5068012;28;19952;-55
2023/06/16 12:36:21;;;;;;;;;;;25.20;55.40;;;;;;5062338;28;19923;-54
2023/06/16 12:38:47;;;;;;;;;;;25.20;55.70;;;;;;5105851;28;19959;-55
2023/06/16 12:41:13;;;;;;;;;;;25.20;55.40;;;;;;5072718;28;19908;-55
2023/06/16 12:43:51;;;;;;;;;;;25.30;55.30;;;;;;5105491;28;19928;-54
2023/06/16 12:46:16;;;;;;;;;;;25.30;55.40;;;;;;5053218;28;20007;-54
2023/06/16 12:48:42;;;;;;;;;;;25.20;55.00;;;;;;5073510;28;19999;-55
2023/06/16 12:51:08;;;;;;;;;;;25.30;55.10;;;;;;5072252;28;19936;-55
2023/06/16 12:53:40;;;;;;;;;;;25.30;55.00;;;;;;5072404;28;20046;-54
2023/06/16 12:56:07;;;;;;;;;;;25.30;55.10;;;;;;5065243;28;20430;-53
2023/06/16 12:58:33;;;;;;;;;;;25.30;55.10;;;;;;5066145;28;19987;-54
2023/06/16 13:00:59;;;;;;;;;;;25.20;55.10;;;;;;5055710;28;19964;-54
2023/06/16 13:03:24;;;;;;;;;;;25.20;55.20;;;;;;5072811;28;19920;-54
2023/06/16 13:05:52;;;;;;;;;;;25.30;55.30;;;;;;5063035;28;19912;-54
2023/06/16 13:08:17;;;;;;;;;;;25.20;55.10;;;;;;5052735;28;19917;-54
2023/06/16 13:10:43;;;;;;;;;;;25.20;55.10;;;;;;5062029;28;19927;-54
2023/06/16 13:13:08;;;;;;;;;;;25.20;54.90;;;;;;5073174;28;19948;-54
2023/06/16 13:15:34;;;;;;;;;;;25.20;55.00;;;;;;5062839;28;20280;-54
2023/06/16 13:18:00;;;;;;;;;;;25.20;54.90;;;;;;5061911;28;19921;-54
2023/06/16 13:20:25;;;;;;;;;;;25.20;55.00;;;;;;5096813;28;20359;-54
2023/06/16 13:22:51;;;;;;;;;;;25.20;55.00;;;;;;5061043;28;19913;-54
2023/06/16 13:25:16;;;;;;;;;;;25.20;55.00;;;;;;5057216;28;19919;-54
2023/06/16 13:27:41;;;;;;;;;;;25.20;55.00;;;;;;5090189;28;19981;-55
2023/06/16 13:30:07;;;;;;;;;;;25.20;55.00;;;;;;5061259;28;20587;-54
2023/06/16 13:32:33;;;;;;;;;;;25.20;55.00;;;;;;5063147;28;19912;-54
2023/06/16 13:34:58;;;;;;;;;;;25.20;55.00;;;;;;5055260;28;19923;-54
2023/06/16 13:37:23;;;;;;;;;;;25.20;55.10;;;;;;5059095;28;20272;-53
2023/06/16 13:39:49;;;;;;;;;;;25.30;55.30;;;;;;5055941;28;19916;-53
2023/06/16 13:42:14;;;;;;;;;;;25.20;55.30;;;;;;5071758;28;20368;-53
2023/06/16 13:44:40;;;;;;;;;;;25.20;55.10;;;;;;5065190;28;19920;-53
2023/06/16 13:47:05;;;;;;;;;;;25.20;55.20;;;;;;5058621;28;19919;-53
2023/06/16 13:49:31;;;;;;;;;;;25.20;55.20;;;;;;5057843;28;20372;-54
2023/06/16 13:51:57;;;;;;;;;;;25.20;55.10;;;;;;5062579;28;19920;-54
2023/06/16 13:54:22;;;;;;;;;;;25.10;55.10;;;;;;5064673;28;20003;-53
2023/06/16 13:56:49;;;;;;;;;;;25.10;55.10;;;;;;5059647;28;19931;-56
2023/06/16 13:59:15;;;;;;;;;;;25.10;54.90;;;;;;5057037;28;20293;-56
2023/06/16 14:01:40;;;;;;;;;;;25.10;54.70;;;;;;5064831;28;19912;-55
2023/06/16 14:04:06;;;;;;;;;;;25.10;54.50;;;;;;5064663;28;19919;-55
2023/06/16 14:06:31;;;;;;;;;;;25.10;54.30;;;;;;5056665;28;20513;-56
2023/06/16 14:08:59;;;;;;;;;;;25.20;54.20;;;;;;5058552;28;19932;-55
2023/06/16 14:11:24;;;;;;;;;;;25.10;54.00;;;;;;5070007;28;20221;-55